createdAt,value
2023-03-06T00:00:07.633Z,100642.34
2023-03-06T00:02:38.902Z,100638.50
2023-03-06T00:05:07.491Z,100638.50
2023-03-06T00:07:36.723Z,100637.03
2023-03-06T00:10:06.056Z,100635.59
2023-03-06T00:12:34.354Z,100635.59
2023-03-06T00:15:05.639Z,100631.03
2023-03-06T00:17:35.079Z,100630.28
2023-03-06T00:20:04.496Z,100628.13
2023-03-06T00:22:33.813Z,100622.84
2023-03-06T00:25:03.151Z,100620.88
2023-03-06T00:27:32.357Z,100622.09
2023-03-06T00:30:01.804Z,100620.69
2023-03-06T00:32:30.673Z,100616.09
2023-03-06T00:34:59.747Z,100611.28
2023-03-06T00:37:27.991Z,100608.63
2023-03-06T00:39:57.196Z,100607.19
2023-03-06T00:42:25.108Z,100605.25
2023-03-06T00:44:53.361Z,100605.75
2023-03-06T00:47:23.959Z,100605.75
2023-03-06T00:49:53.470Z,100596.34
2023-03-06T00:52:22.329Z,100597.59
2023-03-06T00:54:51.666Z,100592.28
2023-03-06T00:57:20.986Z,100583.59
2023-03-06T00:59:49.824Z,100589.41
2023-03-06T01:02:18.220Z,100586.75
2023-03-06T01:04:47.879Z,100578.78
2023-03-06T01:07:16.205Z,100570.59
2023-03-06T01:09:45.511Z,100554.69
2023-03-06T01:12:16.304Z,100553.97
2023-03-06T01:14:45.093Z,100557.13
2023-03-06T01:17:13.892Z,100562.44
2023-03-06T01:19:44.248Z,100562.44
2023-03-06T01:22:14.831Z,100558.31
2023-03-06T01:24:43.632Z,100551.59
2023-03-06T01:27:12.912Z,100547.50
2023-03-06T01:29:45.175Z,100546.78
2023-03-06T01:32:14.009Z,100544.63
2023-03-06T01:34:42.712Z,100540.78
2023-03-06T01:37:10.371Z,100534.00
2023-03-06T01:39:40.078Z,100531.38
2023-03-06T01:42:09.779Z,100534.00
2023-03-06T01:44:39.121Z,100537.91
2023-03-06T01:47:07.543Z,100537.91
2023-03-06T01:49:36.364Z,100543.19
2023-03-06T01:52:05.201Z,100533.78
2023-03-06T01:54:34.550Z,100531.13
2023-03-06T01:57:02.927Z,100537.16
2023-03-06T01:59:31.892Z,100535.00
2023-03-06T02:02:06.641Z,100534.78
2023-03-06T02:04:36.851Z,100530.22
2023-03-06T02:07:06.132Z,100533.59
2023-03-06T02:09:35.053Z,100520.81
2023-03-06T02:12:03.937Z,100520.09
2023-03-06T02:14:32.444Z,100517.44
2023-03-06T02:17:02.888Z,100519.38
2023-03-06T02:19:32.929Z,100523.94
2023-03-06T02:22:01.832Z,100516.00
2023-03-06T02:24:30.670Z,100523.94
2023-03-06T02:26:59.846Z,100517.25
2023-03-06T02:29:28.248Z,100511.94
2023-03-06T02:32:00.475Z,100506.63
2023-03-06T02:34:29.745Z,100503.75
2023-03-06T02:36:58.995Z,100514.34
2023-03-06T02:39:27.418Z,100507.59
2023-03-06T02:41:56.653Z,100500.88
2023-03-06T02:44:26.091Z,100500.88
2023-03-06T02:46:54.824Z,100495.56
2023-03-06T02:49:24.897Z,100496.28
2023-03-06T02:51:54.926Z,100497.50
2023-03-06T02:54:24.076Z,100492.72
2023-03-06T02:56:53.770Z,100479.44
2023-03-06T02:59:22.862Z,100481.38
2023-03-06T03:01:51.240Z,100482.84
2023-03-06T03:04:19.410Z,100470.03
2023-03-06T03:06:48.589Z,100468.63
2023-03-06T03:09:17.855Z,100457.28
2023-03-06T03:11:46.706Z,100459.19
2023-03-06T03:14:16.143Z,100452.69
2023-03-06T03:16:47.076Z,100447.16
2023-03-06T03:19:16.406Z,100437.78
2023-03-06T03:21:44.843Z,100448.41
2023-03-06T03:24:14.145Z,100441.66
2023-03-06T03:26:43.612Z,100440.94
2023-03-06T03:29:16.533Z,100434.91
2023-03-06T03:31:45.404Z,100424.31
2023-03-06T03:34:14.453Z,100419.00
2023-03-06T03:36:45.053Z,100410.81
2023-03-06T03:39:14.786Z,100412.28
2023-03-06T03:41:44.167Z,100410.81
2023-03-06T03:44:13.806Z,100405.50
2023-03-06T03:46:43.247Z,100406.25
2023-03-06T03:49:17.121Z,100412.28
2023-03-06T03:51:45.485Z,100403.59
2023-03-06T03:54:14.430Z,100411.53
2023-03-06T03:56:46.148Z,100405.50
2023-03-06T03:59:20.744Z,100405.50
2023-03-06T04:02:01.035Z,100406.78
2023-03-06T04:04:30.100Z,100400.22
2023-03-06T04:06:59.972Z,100404.13
2023-03-06T04:09:28.878Z,100398.09
2023-03-06T04:11:57.980Z,100393.50
2023-03-06T04:14:26.859Z,100394.72
2023-03-06T04:16:56.142Z,100384.09
2023-03-06T04:19:25.526Z,100386.75
2023-03-06T04:21:54.666Z,100378.81
2023-03-06T04:24:24.548Z,100376.16
2023-03-06T04:26:53.551Z,100381.44
2023-03-06T04:29:22.378Z,100380.72
2023-03-06T04:31:51.553Z,100380.03
2023-03-06T04:34:20.824Z,100376.16
2023-03-06T04:36:49.176Z,100370.84
2023-03-06T04:39:18.665Z,100372.06
2023-03-06T04:41:48.564Z,100364.13
2023-03-06T04:44:17.276Z,100365.31
2023-03-06T04:46:46.511Z,100372.06
2023-03-06T04:49:15.823Z,100364.13
2023-03-06T04:51:45.157Z,100364.13
2023-03-06T04:54:14.421Z,100358.81
2023-03-06T04:56:43.150Z,100353.50
2023-03-06T04:59:11.972Z,100353.50
2023-03-06T05:01:45.351Z,100353.50
2023-03-06T05:04:14.746Z,100353.50
2023-03-06T05:06:44.148Z,100350.63
2023-03-06T05:09:13.386Z,100350.63
2023-03-06T05:11:42.737Z,100341.47
2023-03-06T05:14:12.149Z,100352.06
2023-03-06T05:16:41.386Z,100338.81
2023-03-06T05:19:10.700Z,100345.34
2023-03-06T05:21:40.008Z,100343.91
2023-03-06T05:24:08.870Z,100337.88
2023-03-06T05:26:37.722Z,100335.94
2023-03-06T05:29:07.030Z,100338.59
2023-03-06T05:31:36.382Z,100337.88
2023-03-06T05:34:05.675Z,100333.31
2023-03-06T05:36:35.022Z,100339.84
2023-03-06T05:39:04.330Z,100327.78
2023-03-06T05:41:33.906Z,100332.56
2023-03-06T05:44:02.681Z,100331.88
2023-03-06T05:46:31.975Z,100329.22
2023-03-06T05:49:01.293Z,100320.56
2023-03-06T05:51:30.539Z,100326.56
2023-03-06T05:53:59.340Z,100317.41
2023-03-06T05:56:32.363Z,100331.88
2023-03-06T05:59:01.503Z,100321.97
2023-03-06T06:01:30.773Z,100319.81
2023-03-06T06:03:59.673Z,100321.28
2023-03-06T06:06:28.928Z,100321.28
2023-03-06T06:08:58.294Z,100321.28
2023-03-06T06:11:27.503Z,100321.28
2023-03-06T06:13:56.709Z,100321.28
2023-03-06T06:16:25.897Z,100323.94
2023-03-06T06:18:55.283Z,100321.28
2023-03-06T06:21:24.082Z,100319.81
2023-03-06T06:23:52.894Z,100319.09
2023-03-06T06:26:22.070Z,100322.69
2023-03-06T06:28:51.360Z,100325.13
2023-03-06T06:31:20.722Z,100328.00
2023-03-06T06:33:50.018Z,100323.44
2023-03-06T06:36:19.279Z,100322.69
2023-03-06T06:38:48.528Z,100327.28
2023-03-06T06:44:08.151Z,100337.38
2023-03-06T06:47:20.892Z,100334.72
2023-03-06T06:49:25.595Z,100330.84
2023-03-06T06:51:54.328Z,100328.19
2023-03-06T06:54:23.696Z,100336.38
2023-03-06T06:56:52.157Z,100327.69
2023-03-06T06:59:21.572Z,100335.19
2023-03-06T07:01:50.847Z,100325.97
2023-03-06T07:04:20.077Z,100329.56
2023-03-06T07:06:53.019Z,100333.16
2023-03-06T07:09:21.964Z,100336.03
2023-03-06T07:11:51.318Z,100335.03
2023-03-06T07:14:20.561Z,100336.44
2023-03-06T07:16:49.856Z,100338.81
2023-03-06T07:19:19.225Z,100331.78
2023-03-06T07:21:52.536Z,100338.72
2023-03-06T07:24:21.804Z,100342.81
2023-03-06T07:26:50.993Z,100349.78
2023-03-06T07:29:20.365Z,100345.19
2023-03-06T07:31:49.706Z,100338.16
2023-03-06T07:34:18.949Z,100353.06
2023-03-06T07:36:48.198Z,100346.75
2023-03-06T07:39:17.553Z,100346.53
2023-03-06T07:41:50.457Z,100357.06
2023-03-06T07:44:19.172Z,100352.47
2023-03-06T07:46:48.149Z,100355.34
2023-03-06T07:49:16.890Z,100359.66
2023-03-06T07:51:46.183Z,100357.22
2023-03-06T07:54:15.500Z,100356.19
2023-03-06T07:56:44.773Z,100365.78
2023-03-06T07:59:13.583Z,100363.34
2023-03-06T08:01:42.825Z,100352.16
2023-03-06T08:04:12.154Z,100350.56
2023-03-06T08:06:41.422Z,100357.84
2023-03-06T08:09:10.420Z,100364.50
2023-03-06T08:11:38.607Z,100360.22
2023-03-06T08:14:07.522Z,100362.66
2023-03-06T08:16:36.225Z,100358.72
2023-03-06T08:19:05.512Z,100365.03
2023-03-06T08:21:34.762Z,100356.34
2023-03-06T08:24:04.061Z,100360.13
2023-03-06T08:26:33.287Z,100354.28
2023-03-06T08:29:02.603Z,100363.63
2023-03-06T08:31:31.845Z,100371.09
2023-03-06T08:34:01.201Z,100364.78
2023-03-06T08:36:30.544Z,100367.22
2023-03-06T08:38:59.758Z,100375.03
2023-03-06T08:41:29.113Z,100371.06
2023-03-06T08:43:58.039Z,100366.78
2023-03-06T08:46:26.825Z,100372.63
2023-03-06T08:48:56.142Z,100372.63
2023-03-06T08:51:25.016Z,100367.13
2023-03-06T08:53:53.913Z,100370.69
2023-03-06T08:56:22.703Z,100374.28
2023-03-06T08:58:51.496Z,100370.72
2023-03-06T09:01:20.441Z,100376.81
2023-03-06T09:03:49.140Z,100373.91
2023-03-06T09:06:18.504Z,100367.91
2023-03-06T09:08:47.798Z,100368.72
2023-03-06T09:11:16.382Z,100367.19
2023-03-06T09:13:45.141Z,100356.63
2023-03-06T09:16:14.513Z,100356.66
2023-03-06T09:18:43.647Z,100367.38
2023-03-06T09:21:11.889Z,100365.78
2023-03-06T09:23:41.174Z,100360.94
2023-03-06T09:26:10.504Z,100363.63
2023-03-06T09:28:39.380Z,100362.00
2023-03-06T09:31:08.200Z,100366.94
2023-03-06T09:33:37.446Z,100370.13
2023-03-06T09:36:06.213Z,100366.56
2023-03-06T09:38:36.753Z,100364.38
2023-03-06T09:43:34.721Z,100358.97
2023-03-06T09:46:03.393Z,100363.59
2023-03-06T09:48:32.234Z,100368.22
2023-03-06T09:51:01.234Z,100372.47
2023-03-06T09:53:29.856Z,100356.44
2023-03-06T09:55:58.703Z,100366.94
2023-03-06T09:58:28.020Z,100362.41
2023-03-06T10:00:56.779Z,100367.50
2023-03-06T10:03:26.002Z,100358.69
2023-03-06T10:05:55.435Z,100366.41
2023-03-06T10:08:24.595Z,100361.41
2023-03-06T10:10:53.301Z,100371.19
2023-03-06T10:13:22.641Z,100376.63
2023-03-06T10:15:52.029Z,100365.34
2023-03-06T10:18:21.398Z,100371.88
2023-03-06T10:20:50.402Z,100377.56
2023-03-06T10:23:19.721Z,100374.72
2023-03-06T10:25:49.229Z,100374.38
2023-03-06T10:28:18.355Z,100370.13
2023-03-06T10:30:46.731Z,100370.91
2023-03-06T10:33:15.334Z,100365.66
2023-03-06T10:35:44.634Z,100370.59
2023-03-06T10:38:13.970Z,100365.09
2023-03-06T10:40:42.769Z,100374.09
2023-03-06T10:43:12.373Z,100367.63
2023-03-06T10:45:48.857Z,100374.34
2023-03-06T10:48:18.946Z,100381.66
2023-03-06T10:50:48.134Z,100372.22
2023-03-06T10:53:17.454Z,100373.69
2023-03-06T10:55:46.666Z,100383.91
2023-03-06T10:58:15.992Z,100375.44
2023-03-06T11:00:44.824Z,100370.31
2023-03-06T11:03:13.994Z,100370.53
2023-03-06T11:05:42.453Z,100371.41
2023-03-06T11:08:10.600Z,100372.63
2023-03-06T11:10:39.562Z,100368.88
2023-03-06T11:13:08.130Z,100363.78
2023-03-06T11:15:37.428Z,100358.03
2023-03-06T11:18:06.605Z,100353.63
2023-03-06T11:20:50.039Z,100362.50
2023-03-06T11:23:19.154Z,100353.88
2023-03-06T11:25:47.328Z,100343.09
2023-03-06T11:28:16.134Z,100345.53
2023-03-06T11:30:45.490Z,100351.38
2023-03-06T11:33:14.715Z,100343.13
2023-03-06T11:35:43.966Z,100345.88
2023-03-06T11:38:12.810Z,100338.16
2023-03-06T11:40:41.843Z,100330.00
2023-03-06T11:43:10.564Z,100329.41
2023-03-06T11:45:39.359Z,100330.47
2023-03-06T11:48:08.553Z,100316.66
2023-03-06T11:50:37.812Z,100327.22
2023-03-06T11:53:07.044Z,100323.84
2023-03-06T11:55:36.296Z,100313.47
2023-03-06T11:58:05.135Z,100315.31
2023-03-06T12:00:34.536Z,100308.28
2023-03-06T12:03:03.749Z,100313.56
2023-03-06T12:05:33.018Z,100313.19
2023-03-06T12:08:02.337Z,100318.59
2023-03-06T12:10:31.753Z,100306.25
2023-03-06T12:13:01.290Z,100300.34
2023-03-06T12:15:30.681Z,100297.97
2023-03-06T12:18:00.167Z,100299.53
2023-03-06T12:20:29.492Z,100297.88
2023-03-06T12:23:14.421Z,100299.03
2023-03-06T12:25:43.981Z,100292.69
2023-03-06T12:28:13.191Z,100283.84
2023-03-06T12:30:42.535Z,100276.72
2023-03-06T12:33:11.476Z,100280.28
2023-03-06T12:35:40.180Z,100278.84
2023-03-06T12:38:09.127Z,100285.78
2023-03-06T12:40:37.284Z,100287.00
2023-03-06T12:43:06.025Z,100282.44
2023-03-06T12:45:35.237Z,100282.88
2023-03-06T12:48:04.152Z,100280.75
2023-03-06T12:50:33.019Z,100265.50
2023-03-06T12:53:01.798Z,100273.03
2023-03-06T12:55:31.077Z,100269.81
2023-03-06T12:57:59.393Z,100270.59
2023-03-06T13:00:28.546Z,100276.66
2023-03-06T13:02:57.202Z,100266.13
2023-03-06T13:05:26.497Z,100253.44
2023-03-06T13:07:55.817Z,100246.44
2023-03-06T13:10:25.158Z,100239.97
2023-03-06T13:12:54.444Z,100248.00
2023-03-06T13:15:23.301Z,100239.78
2023-03-06T13:17:52.637Z,100236.44
2023-03-06T13:20:21.518Z,100238.06
2023-03-06T13:22:50.517Z,100234.94
2023-03-06T13:25:18.725Z,100236.81
2023-03-06T13:27:47.604Z,100229.13
2023-03-06T13:30:15.756Z,100230.88
2023-03-06T13:32:44.973Z,100230.03
2023-03-06T13:35:14.348Z,100214.09
2023-03-06T13:37:43.589Z,100227.28
2023-03-06T13:40:12.833Z,100217.03
2023-03-06T13:42:42.090Z,100209.22
2023-03-06T13:45:11.505Z,100206.03
2023-03-06T13:48:05.790Z,100206.75
2023-03-06T13:50:29.194Z,100203.25
2023-03-06T13:52:58.001Z,100194.53
2023-03-06T13:55:27.470Z,100190.47
2023-03-06T13:57:56.292Z,100192.56
2023-03-06T14:00:25.594Z,100189.50
2023-03-06T14:02:54.949Z,100196.34
2023-03-06T14:05:23.898Z,100178.19
2023-03-06T14:07:52.492Z,100177.09
2023-03-06T14:10:21.315Z,100178.66
2023-03-06T14:12:50.680Z,100183.88
2023-03-06T14:15:19.966Z,100176.00
2023-03-06T14:17:48.755Z,100171.44
2023-03-06T14:20:17.659Z,100169.94
2023-03-06T14:22:47.026Z,100163.75
2023-03-06T14:25:16.460Z,100165.56
2023-03-06T14:27:45.851Z,100148.88
2023-03-06T14:30:18.695Z,100154.03
2023-03-06T14:32:47.685Z,100143.59
2023-03-06T14:35:16.402Z,100146.41
2023-03-06T14:37:49.199Z,100151.03
2023-03-06T14:40:18.195Z,100150.31
2023-03-06T14:42:46.867Z,100144.28
2023-03-06T14:45:15.926Z,100142.28
2023-03-06T14:47:43.728Z,100133.59
2023-03-06T14:50:12.325Z,100120.78
2023-03-06T14:52:40.648Z,100137.47
2023-03-06T14:55:09.893Z,100128.94
2023-03-06T14:57:39.173Z,100127.69
2023-03-06T15:00:08.462Z,100123.94
2023-03-06T15:02:37.286Z,100119.69
2023-03-06T15:05:06.058Z,100120.72
2023-03-06T15:07:35.297Z,100116.47
2023-03-06T15:10:04.582Z,100120.34
2023-03-06T15:12:33.766Z,100117.53
2023-03-06T15:15:03.027Z,100120.00
2023-03-06T15:17:32.155Z,100115.03
2023-03-06T15:20:01.186Z,100111.09
2023-03-06T15:22:29.863Z,100118.53
2023-03-06T15:24:58.030Z,100123.13
2023-03-06T15:27:27.246Z,100104.28
2023-03-06T15:29:56.485Z,100096.13
2023-03-06T15:32:25.866Z,100082.63
2023-03-06T15:34:55.231Z,100079.78
2023-03-06T15:37:24.445Z,100078.16
2023-03-06T15:39:53.744Z,100080.81
2023-03-06T15:42:23.085Z,100077.97
2023-03-06T15:44:52.481Z,100084.34
2023-03-06T15:47:21.493Z,100074.59
2023-03-06T15:49:50.027Z,100082.22
2023-03-06T15:52:18.911Z,100083.22
2023-03-06T15:54:48.187Z,100077.03
2023-03-06T15:57:17.485Z,100083.38
2023-03-06T15:59:46.627Z,100069.69
2023-03-06T16:02:15.852Z,100071.47
2023-03-06T16:04:45.143Z,100076.59
2023-03-06T16:07:14.339Z,100069.69
2023-03-06T16:09:43.601Z,100054.78
2023-03-06T16:12:12.630Z,100058.47
2023-03-06T16:14:40.871Z,100054.41
2023-03-06T16:17:10.046Z,100050.09
2023-03-06T16:19:38.833Z,100041.94
2023-03-06T16:22:08.178Z,100037.66
2023-03-06T16:24:37.258Z,100040.16
2023-03-06T16:27:06.331Z,100039.78
2023-03-06T16:29:35.417Z,100038.13
2023-03-06T16:32:03.815Z,100039.41
2023-03-06T16:34:33.142Z,100039.00
2023-03-06T16:37:02.432Z,100036.19
2023-03-06T16:39:31.697Z,100044.47
2023-03-06T16:42:01.012Z,100040.19
2023-03-06T16:44:30.177Z,100040.03
2023-03-06T16:46:58.373Z,100039.09
2023-03-06T16:49:27.183Z,100050.28
2023-03-06T16:51:56.475Z,100037.50
2023-03-06T16:54:25.781Z,100034.63
2023-03-06T16:56:54.978Z,100038.53
2023-03-06T16:59:23.740Z,100039.56
2023-03-06T17:01:52.878Z,100032.81
2023-03-06T17:04:21.848Z,100017.91
2023-03-06T17:06:50.416Z,100017.53
2023-03-06T17:09:19.441Z,100013.66
2023-03-06T17:11:48.181Z,100016.13
2023-03-06T17:14:17.292Z,100005.31
2023-03-06T17:16:49.826Z,100003.66
2023-03-06T17:19:18.707Z,99999.59
2023-03-06T17:21:48.099Z,99998.69
2023-03-06T17:24:17.493Z,100001.88
2023-03-06T17:26:46.316Z,100001.16
2023-03-06T17:29:15.592Z,99997.59
2023-03-06T17:31:44.397Z,100005.38
2023-03-06T17:34:13.713Z,100002.53
2023-03-06T17:36:41.857Z,99989.06
2023-03-06T17:39:11.051Z,99998.25
2023-03-06T17:41:40.297Z,99995.44
2023-03-06T17:44:09.617Z,99983.34
2023-03-06T17:46:38.873Z,99986.53
2023-03-06T17:49:07.603Z,99991.84
2023-03-06T17:51:36.904Z,99977.66
2023-03-06T17:54:06.129Z,99981.53
2023-03-06T17:56:35.542Z,99973.56
2023-03-06T17:59:04.841Z,99980.13
2023-03-06T18:01:34.082Z,99974.44
2023-03-06T18:04:03.309Z,99965.22
2023-03-06T18:06:32.549Z,99971.75
2023-03-06T18:09:01.977Z,99963.06
2023-03-06T18:11:31.366Z,99966.28
2023-03-06T18:13:59.690Z,99968.94
2023-03-06T18:16:28.927Z,99965.91
2023-03-06T18:18:58.164Z,99961.78
2023-03-06T18:21:27.483Z,99956.28
2023-03-06T18:23:56.746Z,99946.72
2023-03-06T18:26:25.202Z,99943.88
2023-03-06T18:28:53.345Z,99940.31
2023-03-06T18:31:22.156Z,99939.38
2023-03-06T18:33:51.504Z,99939.22
2023-03-06T18:36:20.852Z,99927.66
2023-03-06T18:38:49.784Z,99922.91
2023-03-06T18:41:17.967Z,99920.75
2023-03-06T18:43:47.455Z,99926.56
2023-03-06T18:46:16.184Z,99915.75
2023-03-06T18:48:45.344Z,99908.31
2023-03-06T18:51:14.559Z,99894.44
2023-03-06T18:53:43.858Z,99907.22
2023-03-06T18:56:13.264Z,99904.34
2023-03-06T18:58:46.457Z,99891.63
2023-03-06T19:01:15.877Z,99884.69
2023-03-06T19:03:45.201Z,99890.53
2023-03-06T19:06:14.300Z,99885.22
2023-03-06T19:08:42.893Z,99887.16
2023-03-06T19:11:11.562Z,99883.06
2023-03-06T19:13:40.776Z,99882.34
2023-03-06T19:16:10.026Z,99877.03
2023-03-06T19:18:38.609Z,99870.31
2023-03-06T19:21:06.776Z,99866.22
2023-03-06T19:23:36.148Z,99865.31
2023-03-06T19:26:05.350Z,99864.63
2023-03-06T19:28:34.149Z,99855.22
2023-03-06T19:31:03.410Z,99853.81
2023-03-06T19:33:36.441Z,99852.19
2023-03-06T19:36:05.451Z,99845.47
2023-03-06T19:38:33.790Z,99842.81
2023-03-06T19:41:02.375Z,99833.41
2023-03-06T19:43:31.524Z,99832.03
2023-03-06T19:46:00.255Z,99833.03
2023-03-06T19:48:28.788Z,99825.78
2023-03-06T19:50:57.163Z,99824.91
2023-03-06T19:53:25.835Z,99828.75
2023-03-06T19:55:54.809Z,99822.56
2023-03-06T19:58:22.994Z,99817.78
2023-03-06T20:00:51.121Z,99799.00
2023-03-06T20:03:19.941Z,99801.44
2023-03-06T20:05:48.423Z,99789.44
2023-03-06T20:08:17.046Z,99783.22
2023-03-06T20:10:45.818Z,99777.00
2023-03-06T20:13:15.055Z,99777.00
2023-03-06T20:15:44.338Z,99768.13
2023-03-06T20:18:13.642Z,99764.78
2023-03-06T20:20:42.601Z,99758.75
2023-03-06T20:23:11.319Z,99760.72
2023-03-06T20:25:40.584Z,99766.03
2023-03-06T20:28:09.391Z,99759.31
2023-03-06T20:30:39.658Z,99747.25
2023-03-06T20:33:09.079Z,99751.16
2023-03-06T20:35:38.311Z,99747.59
2023-03-06T20:38:07.693Z,99745.47
2023-03-06T20:40:36.588Z,99738.72
2023-03-06T20:43:05.263Z,99725.28
2023-03-06T20:45:34.547Z,99726.69
2023-03-06T20:48:03.932Z,99716.41
2023-03-06T20:50:32.436Z,99714.25
2023-03-06T20:53:00.629Z,99719.56
2023-03-06T20:55:29.808Z,99720.81
2023-03-06T20:57:59.051Z,99706.13
2023-03-06T21:00:28.340Z,99707.53
2023-03-06T21:02:57.715Z,99703.28
2023-03-06T21:05:30.764Z,99694.09
2023-03-06T21:08:00.017Z,99697.25
2023-03-06T21:10:28.553Z,99687.19
2023-03-06T21:12:57.197Z,99678.53
2023-03-06T21:15:26.511Z,99678.53
2023-03-06T21:17:55.869Z,99677.09
2023-03-06T21:20:24.563Z,99677.09
2023-03-06T21:22:53.895Z,99667.00
2023-03-06T21:25:22.633Z,99670.88
2023-03-06T21:27:51.328Z,99661.50
2023-03-06T21:30:20.330Z,99657.44
2023-03-06T21:32:48.944Z,99648.25
2023-03-06T21:35:18.192Z,99633.59
2023-03-06T21:37:47.435Z,99645.59
2023-03-06T21:40:16.679Z,99638.88
2023-03-06T21:42:49.542Z,99630.22
2023-03-06T21:45:18.834Z,99634.31
2023-03-06T21:47:48.134Z,99629.69
2023-03-06T21:50:16.528Z,99622.97
2023-03-06T21:52:45.707Z,99617.69
2023-03-06T21:55:14.053Z,99622.97
2023-03-06T21:57:43.291Z,99626.84
2023-03-06T22:00:11.807Z,99621.53
2023-03-06T22:02:40.558Z,99619.09
2023-03-06T22:05:09.846Z,99613.09
2023-03-06T22:07:38.866Z,99603.19
2023-03-06T22:10:06.982Z,99603.19
2023-03-06T22:12:36.245Z,99601.94
2023-03-06T22:15:05.481Z,99588.69
2023-03-06T22:17:34.807Z,99606.00
2023-03-06T22:20:08.030Z,99591.53
2023-03-06T22:22:37.297Z,99599.50
2023-03-06T22:25:06.216Z,99586.25
2023-03-06T22:27:34.830Z,99596.84
2023-03-06T22:30:04.117Z,99596.84
2023-03-06T22:32:33.448Z,99600.91
2023-03-06T22:35:02.733Z,99589.09
2023-03-06T22:37:31.599Z,99599.69
2023-03-06T22:40:01.793Z,99592.44
2023-03-06T22:42:31.060Z,99599.88
2023-03-06T22:44:59.826Z,99596.50
2023-03-06T22:47:29.177Z,99586.59
2023-03-06T22:49:58.460Z,99588.03
2023-03-06T22:52:27.362Z,99578.13
2023-03-06T22:54:57.517Z,99584.16
2023-03-06T22:57:26.721Z,99584.31
2023-03-06T22:59:55.878Z,99586.97
2023-03-06T23:02:24.574Z,99586.97
2023-03-06T23:04:53.767Z,99576.38
2023-03-06T23:07:22.984Z,99580.47
2023-03-06T23:10:01.613Z,99575.16
2023-03-06T23:12:49.200Z,99572.50
2023-03-06T23:15:36.520Z,99577.81
2023-03-06T23:18:24.011Z,99577.09
2023-03-06T23:21:11.147Z,99568.63
2023-03-06T23:23:57.849Z,99572.69
2023-03-06T23:26:26.032Z,99564.03
2023-03-06T23:28:55.277Z,99573.91
2023-03-06T23:31:24.632Z,99580.66
2023-03-06T23:33:53.925Z,99570.06
2023-03-06T23:36:22.635Z,99564.03
2023-03-06T23:38:51.428Z,99568.09
2023-03-06T23:41:20.098Z,99562.78
2023-03-06T23:43:48.786Z,99565.44
2023-03-06T23:46:17.740Z,99560.84
2023-03-06T23:48:47.081Z,99556.78
2023-03-06T23:51:16.043Z,99554.84
2023-03-06T23:53:44.660Z,99560.84
2023-03-06T23:56:13.966Z,99550.25
2023-03-06T23:58:43.201Z,99554.84
